Buffalo, Texas
Current Conditions -  °F | °C
As of 10:55 AM on Thursday 30 Oct 2014 (Local Time) from KLXY Reporting Station
Scattered Clouds Scattered Clouds  
Wind Chill: 65°   Ceiling: Unl
Heat Index: 65°   Visibility: 10mi
Dew Point: 48°   Wind: 8mph
Humidity: 54%   Direction: 140°SE
Pressure: 30.18"   Gusts: NA
Location:  31.46°N, 96.06°W
Report Text: KLXY 301555Z AUTO 14007KT 10SM SCT080 18/09 A3018 RMK AO2 T01840089
Loading
Personal Weather Stations






























Interactive Weather Map
Tropical Storm Tracking
New forecast layout! Learn more

10-Day Weather Forecast

Advertisements
Track Severe Weather on mobile